General WM J Fox Airfield Lancaster US
ICAO: KWJF
IATA: WJF
Category: Medium
Scheduled Services: No

Elevation: 2351 ft
TransAlt. 18000 ft.

Airport Communications:
JOSHUA APP/DEP:126.1
ATIS:126.3
AWOS 3:133.875
CTAF:120.3
GND:121.7
RIVERSIDE RDO:122.2
FOX TWR:120.3
UNICOM:122.95

KWJF Zoom In..

If you have problems with the map follow the link
https://www.worldairports.se/pages/airport.php?
ICAO=KWJF

Runways:

(A) RW 06 length 7201 ft width 150 ft
---- / hdg 57

(B) RW 24 length 7201 ft width 150 ft
---- / hdg 237

Location; KWJF
Day. 20 / Time. 09.56 Zulu
* Altimeter: 30.14
* Temperature: 05° c. 41°f.
* Wind from: 000° Speed 00 kn.
Dewpoint: 01° c.
Visibility: 10 Statute Miles.
Clouds: Clear (automated report).

KWJF 200956Z AUTO 00000KT 10SM CLR 05/01 A3014 RMK AO2 SLP211 T00500006


Wind - Calm.

 
 
jpsmedia worldairports.se 2020   terms of use